createdAt,value
2023-03-20T00:06:47.087Z,64.20
2023-03-20T00:17:18.398Z,63.00
2023-03-20T00:27:45.037Z,60.00
2023-03-20T00:38:11.474Z,58.70
2023-03-20T00:48:37.806Z,57.70
2023-03-20T00:59:05.145Z,56.30
2023-03-20T01:09:31.105Z,56.20
2023-03-20T01:19:56.698Z,40.00
2023-03-20T01:30:25.753Z,44.00
2023-03-20T01:40:58.393Z,41.10
2023-03-20T01:51:26.120Z,39.30
2023-03-20T02:01:52.190Z,43.30
2023-03-20T02:12:18.362Z,42.50
2023-03-20T02:23:31.978Z,36.10
2023-03-20T02:34:30.308Z,36.60
2023-03-20T02:45:05.896Z,40.90
2023-03-20T02:55:41.153Z,38.10
2023-03-20T03:06:12.200Z,39.20
2023-03-20T03:16:41.944Z,37.50
2023-03-20T03:27:14.976Z,46.30
2023-03-20T03:37:49.344Z,52.50
2023-03-20T03:48:19.869Z,51.40
2023-03-20T03:58:50.733Z,54.70
2023-03-20T04:09:16.581Z,49.20
2023-03-20T04:19:42.608Z,49.80
2023-03-20T04:30:10.703Z,50.30
2023-03-20T04:40:36.511Z,45.60
2023-03-20T04:51:02.104Z,46.60
2023-03-20T05:01:28.051Z,40.50
2023-03-20T05:11:54.034Z,26.00
2023-03-20T05:22:19.955Z,37.50
2023-03-20T05:32:46.009Z,39.10
2023-03-20T05:43:11.504Z,42.60
2023-03-20T05:53:37.306Z,35.40
2023-03-20T06:04:03.425Z,44.80
2023-03-20T06:14:29.328Z,82.50
2023-03-20T06:24:56.962Z,55.90
2023-03-20T06:35:23.287Z,45.40
2023-03-20T06:45:49.288Z,34.30
2023-03-20T06:56:15.270Z,24.50
2023-03-20T07:06:40.968Z,22.70
2023-03-20T07:17:07.038Z,25.40
2023-03-20T07:27:32.772Z,24.80
2023-03-20T07:37:58.716Z,24.90
2023-03-20T07:48:24.378Z,36.10
2023-03-20T07:58:50.285Z,28.10
2023-03-20T08:09:16.334Z,28.90
2023-03-20T08:19:42.183Z,26.50
2023-03-20T08:30:17.244Z,20.80
2023-03-20T08:40:44.819Z,26.50
2023-03-20T08:51:10.901Z,30.60
2023-03-20T09:01:48.751Z,24.70
2023-03-20T09:12:15.972Z,28.50
2023-03-20T09:22:43.908Z,28.40
2023-03-20T09:33:09.729Z,26.30
2023-03-20T09:43:53.532Z,29.50
2023-03-20T09:54:25.689Z,26.30
2023-03-20T10:04:54.097Z,26.30
2023-03-20T10:15:26.552Z,26.30
2023-03-20T10:25:55.345Z,27.50
2023-03-20T10:36:39.255Z,22.50
2023-03-20T10:47:09.012Z,21.40
2023-03-20T10:57:38.764Z,19.80
2023-03-20T11:08:07.852Z,21.90
2023-03-20T11:18:34.009Z,21.90
2023-03-20T11:29:01.944Z,20.40
2023-03-20T11:39:29.967Z,27.00
2023-03-20T11:49:59.401Z,23.10
2023-03-20T12:00:28.429Z,27.60
2023-03-20T12:11:00.662Z,22.70
2023-03-20T12:21:32.075Z,22.40
2023-03-20T12:32:03.811Z,17.00
2023-03-20T12:42:45.957Z,19.80
2023-03-20T12:53:35.863Z,15.80
2023-03-20T13:04:22.357Z,18.30
2023-03-20T13:14:54.970Z,14.60
2023-03-20T13:25:32.628Z,16.40
2023-03-20T13:36:09.586Z,14.50
2023-03-20T13:46:41.889Z,15.20
2023-03-20T13:57:20.706Z,20.50
2023-03-20T14:07:48.667Z,21.80
2023-03-20T14:28:58.952Z,18.20
2023-03-20T14:39:35.809Z,25.20
2023-03-20T14:50:12.039Z,25.10
2023-03-20T15:00:48.287Z,25.20
2023-03-20T15:11:17.116Z,22.20
2023-03-20T15:21:45.555Z,27.10
2023-03-20T15:32:15.422Z,25.30
2023-03-20T15:42:41.176Z,20.90
2023-03-20T15:53:11.253Z,21.90
2023-03-20T16:03:41.161Z,20.70
2023-03-20T16:14:09.078Z,19.80
2023-03-20T16:24:39.372Z,21.90
2023-03-20T16:35:09.878Z,24.80
2023-03-20T16:45:38.503Z,23.30
2023-03-20T16:56:06.162Z,21.50
2023-03-20T17:06:37.125Z,27.70
2023-03-20T17:17:02.971Z,24.10
2023-03-20T17:27:29.992Z,16.40
2023-03-20T17:37:55.582Z,16.00
2023-03-20T17:48:23.024Z,17.50
2023-03-20T17:58:49.085Z,23.10
2023-03-20T18:09:15.432Z,28.30
2023-03-20T18:19:41.506Z,48.30
2023-03-20T18:30:15.343Z,17.30
2023-03-20T18:40:40.683Z,17.90
2023-03-20T18:51:07.156Z,16.40
2023-03-20T19:01:32.666Z,15.10
2023-03-20T19:11:58.258Z,16.60
2023-03-20T19:22:29.621Z,18.10
2023-03-20T19:32:55.977Z,21.40
2023-03-20T19:43:22.641Z,41.20
2023-03-20T19:53:49.275Z,60.00
2023-03-20T20:04:15.171Z,52.20
2023-03-20T20:14:41.002Z,56.80
2023-03-20T20:25:07.743Z,56.00
2023-03-20T20:35:55.903Z,35.80
2023-03-20T20:46:20.185Z,49.40
2023-03-20T20:56:46.227Z,49.80
2023-03-20T21:07:13.492Z,42.30
2023-03-20T21:17:53.860Z,34.30
2023-03-20T21:28:25.337Z,33.60
2023-03-20T21:39:07.235Z,28.10
2023-03-20T22:22:43.321Z,27.00
2023-03-20T22:44:24.893Z,48.50
2023-03-20T22:54:14.444Z,54.80
2023-03-20T23:04:40.210Z,46.10
2023-03-20T23:15:06.951Z,49.60
2023-03-20T23:25:39.414Z,37.10
2023-03-20T23:36:16.489Z,37.00
2023-03-20T23:46:50.426Z,56.40
2023-03-20T23:57:15.987Z,34.30
